Arlington, Texas
Current Conditions -  °F | °C
As of 12:15 AM on Monday 26 Jan 2015 (Local Time) from KGPM Reporting Station
Clear Clear  
Wind Chill:   Ceiling: Unl
Heat Index:   Visibility: 10mi
Dew Point: -3°   Wind: 3mph
Humidity: 44%   Direction: 280°W
Pressure: 30.21"   Gusts: NA
Location:  32.74°N, 97.11°W
Report Text: KGPM 260615Z AUTO 28003KT 10SM CLR 09/M02 A3021 RMK AO2 T00921025
Loading
Personal Weather Stations






























Interactive Weather Map New forecast layout! Learn more

10-Day Weather Forecast

Advertisements
Track Severe Weather on mobile